createdAt,value
2023-02-19T00:00:04.519Z,1.92
2023-02-19T00:02:32.854Z,2.65
2023-02-19T00:05:01.124Z,3.28
2023-02-19T00:07:29.435Z,2.33
2023-02-19T00:09:59.058Z,3.08
2023-02-19T00:12:27.409Z,2.63
2023-02-19T00:14:57.151Z,1.45
2023-02-19T00:17:25.458Z,3.03
2023-02-19T00:19:53.796Z,2.72
2023-02-19T00:22:22.390Z,2.80
2023-02-19T00:24:50.997Z,2.70
2023-02-19T00:27:20.665Z,1.70
2023-02-19T00:29:50.006Z,2.30
2023-02-19T00:32:18.322Z,2.00
2023-02-19T00:34:46.850Z,2.00
2023-02-19T00:37:15.190Z,3.08
2023-02-19T00:39:43.441Z,2.70
2023-02-19T00:42:11.722Z,2.20
2023-02-19T00:44:41.370Z,2.15
2023-02-19T00:47:09.686Z,1.63
2023-02-19T00:49:37.957Z,3.72
2023-02-19T00:52:06.451Z,3.45
2023-02-19T00:54:35.073Z,2.97
2023-02-19T00:57:03.407Z,3.53
2023-02-19T00:59:31.685Z,1.50
2023-02-19T01:02:01.366Z,2.40
2023-02-19T01:04:29.745Z,1.98
2023-02-19T01:06:58.080Z,2.30
2023-02-19T01:09:26.360Z,2.30
2023-02-19T01:11:54.678Z,1.90
2023-02-19T01:14:22.965Z,2.20
2023-02-19T01:16:51.292Z,1.23
2023-02-19T01:19:20.994Z,2.90
2023-02-19T01:21:49.570Z,3.30
2023-02-19T01:24:17.919Z,2.83
2023-02-19T01:26:46.263Z,3.03
2023-02-19T01:29:14.534Z,1.55
2023-02-19T01:31:43.285Z,1.00
2023-02-19T01:34:13.391Z,3.70
2023-02-19T01:36:43.064Z,1.70
2023-02-19T01:39:12.528Z,2.55
2023-02-19T01:41:43.014Z,2.22
2023-02-19T01:45:20.070Z,3.45
2023-02-19T01:47:50.580Z,3.38
2023-02-19T01:50:18.992Z,0.83
2023-02-19T01:52:49.442Z,2.90
2023-02-19T01:55:17.790Z,2.90
2023-02-19T01:57:50.880Z,2.97
2023-02-19T02:00:20.292Z,3.22
2023-02-19T02:02:53.450Z,2.55
2023-02-19T02:05:36.338Z,2.10
2023-02-19T02:08:24.149Z,2.53
2023-02-19T02:10:53.825Z,3.38
2023-02-19T02:13:22.880Z,2.05
2023-02-19T02:16:01.528Z,3.80
2023-02-19T02:18:43.550Z,3.38
2023-02-19T02:21:37.469Z,2.83
2023-02-19T02:24:28.882Z,2.85
2023-02-19T02:27:18.821Z,3.30
2023-02-19T02:30:19.338Z,1.92
2023-02-19T02:32:55.839Z,2.40
2023-02-19T02:35:28.093Z,3.90
2023-02-19T02:38:03.615Z,2.35
2023-02-19T02:40:32.610Z,2.13
2023-02-19T02:43:02.031Z,3.80
2023-02-19T02:45:37.702Z,4.00
2023-02-19T02:48:16.015Z,4.10
2023-02-19T02:50:48.236Z,3.47
2023-02-19T02:53:41.335Z,1.25
2023-02-19T02:56:11.469Z,1.67
2023-02-19T02:58:40.191Z,3.40
2023-02-19T03:01:23.997Z,3.40
2023-02-19T03:03:58.925Z,2.38
2023-02-19T03:06:30.071Z,1.10
2023-02-19T03:09:06.372Z,4.20
2023-02-19T03:11:55.983Z,2.53
2023-02-19T03:14:50.018Z,2.63
2023-02-19T03:17:42.284Z,1.73
2023-02-19T03:20:16.019Z,3.88
2023-02-19T03:22:46.025Z,1.02
2023-02-19T03:25:37.226Z,2.85
2023-02-19T03:28:09.525Z,2.47
2023-02-19T03:30:42.673Z,3.70
2023-02-19T03:33:16.917Z,3.03
2023-02-19T03:35:49.849Z,2.25
2023-02-19T03:38:23.767Z,2.05
2023-02-19T03:41:01.039Z,1.80
2023-02-19T03:43:41.901Z,2.10
2023-02-19T03:46:15.551Z,1.77
2023-02-19T03:48:53.245Z,3.15
2023-02-19T03:51:34.765Z,2.47
2023-02-19T03:54:14.115Z,0.90
2023-02-19T03:56:49.007Z,3.17
2023-02-19T03:59:22.249Z,1.08
2023-02-19T04:01:57.529Z,2.90
2023-02-19T04:04:34.223Z,2.73
2023-02-19T04:07:02.813Z,2.00
2023-02-19T04:09:37.192Z,1.02
2023-02-19T04:12:07.647Z,2.15
2023-02-19T04:14:41.074Z,1.85
2023-02-19T04:17:18.821Z,2.45
2023-02-19T04:19:51.950Z,1.80
2023-02-19T04:22:23.226Z,1.83
2023-02-19T04:24:55.529Z,1.35
2023-02-19T04:27:23.959Z,2.20
2023-02-19T04:29:52.216Z,1.17
2023-02-19T04:32:20.710Z,1.73
2023-02-19T04:34:50.953Z,2.20
2023-02-19T04:37:20.201Z,1.77
2023-02-19T04:39:48.501Z,1.10
2023-02-19T04:42:16.965Z,1.77
2023-02-19T04:44:45.504Z,1.30
2023-02-19T04:47:13.830Z,1.90
2023-02-19T04:49:42.123Z,1.50
2023-02-19T04:52:12.119Z,2.20
2023-02-19T04:54:40.408Z,1.40
2023-02-19T04:57:08.768Z,0.68
2023-02-19T04:59:37.091Z,1.13
2023-02-19T05:02:05.418Z,1.20
2023-02-19T05:04:33.927Z,1.57
2023-02-19T05:07:02.377Z,1.10
2023-02-19T05:09:32.056Z,1.38
2023-02-19T05:12:00.369Z,1.90
2023-02-19T05:14:28.731Z,0.80
2023-02-19T05:16:57.066Z,1.73
2023-02-19T05:19:25.377Z,0.80
2023-02-19T05:21:53.762Z,1.05
2023-02-19T05:24:22.243Z,1.63
2023-02-19T05:26:52.186Z,1.48
2023-02-19T05:29:20.516Z,2.47
2023-02-19T05:31:49.265Z,2.00
2023-02-19T05:34:17.614Z,1.55
2023-02-19T05:36:45.930Z,0.45
2023-02-19T05:39:14.352Z,0.50
2023-02-19T05:41:42.688Z,0.88
2023-02-19T05:44:13.012Z,0.88
2023-02-19T05:46:41.442Z,1.10
2023-02-19T05:49:09.792Z,0.55
2023-02-19T05:51:38.171Z,0.40
2023-02-19T05:54:06.820Z,1.52
2023-02-19T05:56:37.239Z,1.77
2023-02-19T05:59:09.700Z,1.80
2023-02-19T06:01:39.379Z,0.88
2023-02-19T06:04:07.766Z,1.33
2023-02-19T06:06:37.196Z,1.48
2023-02-19T06:09:05.812Z,0.50
2023-02-19T06:11:35.121Z,1.37
2023-02-19T06:14:03.578Z,2.00
2023-02-19T06:16:33.690Z,2.10
2023-02-19T06:19:05.710Z,1.17
2023-02-19T06:21:34.035Z,0.55
2023-02-19T06:24:07.599Z,1.65
2023-02-19T06:26:36.733Z,1.30
2023-02-19T06:29:05.273Z,0.80
2023-02-19T06:31:33.943Z,1.25
2023-02-19T06:34:06.803Z,1.93
2023-02-19T06:36:35.400Z,1.55
2023-02-19T06:39:06.853Z,1.80
2023-02-19T06:41:35.299Z,1.40
2023-02-19T06:44:03.736Z,0.93
2023-02-19T06:46:32.067Z,0.47
2023-02-19T06:49:00.529Z,1.50
2023-02-19T06:51:30.215Z,0.85
2023-02-19T06:53:58.531Z,1.53
2023-02-19T06:56:29.104Z,0.60
2023-02-19T06:59:00.745Z,0.70
2023-02-19T07:01:30.689Z,1.05
2023-02-19T07:03:59.515Z,1.17
2023-02-19T07:06:30.660Z,1.02
2023-02-19T07:09:00.741Z,0.90
2023-02-19T07:11:33.132Z,1.30
2023-02-19T07:14:03.956Z,1.23
2023-02-19T07:16:32.400Z,1.15
2023-02-19T07:19:02.158Z,0.60
2023-02-19T07:21:32.101Z,1.83
2023-02-19T07:24:00.427Z,0.98
2023-02-19T07:26:28.826Z,0.90
2023-02-19T07:28:57.230Z,1.10
2023-02-19T07:31:26.156Z,0.60
2023-02-19T07:33:56.599Z,0.68
2023-02-19T07:36:26.076Z,0.77
2023-02-19T07:39:00.691Z,0.80
2023-02-19T07:41:29.396Z,1.10
2023-02-19T07:43:57.783Z,1.58
2023-02-19T07:46:26.549Z,0.50
2023-02-19T07:48:54.903Z,1.60
2023-02-19T07:51:23.637Z,1.00
2023-02-19T07:53:52.400Z,1.20
2023-02-19T07:56:22.356Z,1.27
2023-02-19T07:58:50.802Z,0.73
2023-02-19T08:01:43.237Z,0.45
2023-02-19T08:04:13.576Z,1.50
2023-02-19T08:06:42.555Z,0.85
2023-02-19T08:09:11.284Z,1.10
2023-02-19T08:11:58.500Z,1.85
2023-02-19T08:14:27.700Z,1.23
2023-02-19T08:16:56.774Z,0.35
2023-02-19T08:19:25.312Z,0.88
2023-02-19T08:21:54.018Z,1.45
2023-02-19T08:24:22.423Z,0.90
2023-02-19T08:26:52.111Z,0.70
2023-02-19T08:29:20.591Z,0.80
2023-02-19T08:31:49.244Z,1.05
2023-02-19T08:34:17.646Z,0.77
2023-02-19T08:36:45.946Z,1.65
2023-02-19T08:39:14.254Z,1.30
2023-02-19T08:41:42.544Z,0.85
2023-02-19T08:44:12.225Z,1.23
2023-02-19T08:46:40.508Z,1.10
2023-02-19T08:49:08.825Z,1.27
2023-02-19T08:51:37.124Z,1.33
2023-02-19T08:54:05.957Z,1.60
2023-02-19T08:56:34.295Z,1.95
2023-02-19T08:59:02.649Z,0.70
2023-02-19T09:01:41.003Z,1.40
2023-02-19T09:04:13.123Z,1.58
2023-02-19T09:06:41.749Z,0.50
2023-02-19T09:09:10.363Z,1.70
2023-02-19T09:11:40.548Z,1.60
2023-02-19T09:14:09.339Z,1.65
2023-02-19T09:16:38.196Z,1.58
2023-02-19T09:19:06.486Z,1.13
2023-02-19T09:21:36.152Z,1.60
2023-02-19T09:24:04.819Z,1.45
2023-02-19T09:26:33.135Z,0.82
2023-02-19T09:29:01.412Z,1.70
2023-02-19T09:31:29.791Z,0.60
2023-02-19T09:33:58.098Z,1.08
2023-02-19T09:36:26.423Z,1.30
2023-02-19T09:38:56.051Z,0.70
2023-02-19T09:41:30.276Z,0.40
2023-02-19T09:44:00.884Z,1.35
2023-02-19T09:46:34.170Z,0.47
2023-02-19T09:49:08.087Z,1.13
2023-02-19T09:51:39.069Z,1.15
2023-02-19T09:54:24.969Z,0.63
2023-02-19T09:56:56.121Z,0.75
2023-02-19T09:59:30.000Z,1.10
2023-02-19T10:02:05.756Z,1.20
2023-02-19T10:04:34.051Z,0.85
2023-02-19T10:07:03.847Z,0.70
2023-02-19T10:09:33.544Z,0.90
2023-02-19T10:12:02.474Z,1.50
2023-02-19T10:14:37.433Z,0.85
2023-02-19T10:17:08.153Z,0.70
2023-02-19T10:19:37.848Z,0.80
2023-02-19T10:22:06.757Z,1.00
2023-02-19T10:24:38.426Z,1.58
2023-02-19T10:27:13.178Z,0.75
2023-02-19T10:29:41.672Z,1.15
2023-02-19T10:32:24.063Z,0.55
2023-02-19T10:35:11.185Z,1.58
2023-02-19T10:37:46.015Z,1.33
2023-02-19T10:40:20.655Z,0.98
2023-02-19T10:42:51.739Z,1.07
2023-02-19T10:45:24.549Z,0.47
2023-02-19T10:47:53.982Z,0.60
2023-02-19T10:50:29.222Z,1.00
2023-02-19T10:52:59.947Z,0.70
2023-02-19T10:55:36.031Z,1.20
2023-02-19T10:58:26.465Z,0.63
2023-02-19T11:01:20.792Z,0.90
2023-02-19T11:03:51.493Z,1.30
2023-02-19T11:06:22.721Z,0.90
2023-02-19T11:08:57.929Z,1.10
2023-02-19T11:11:35.287Z,1.27
2023-02-19T11:14:14.748Z,0.60
2023-02-19T11:16:50.034Z,0.50
2023-02-19T11:19:38.953Z,0.47
2023-02-19T11:22:31.974Z,0.63
2023-02-19T11:25:08.734Z,0.40
2023-02-19T11:27:56.650Z,0.95
2023-02-19T11:30:41.487Z,0.90
2023-02-19T11:33:36.984Z,0.60
2023-02-19T11:36:31.128Z,1.05
2023-02-19T11:39:03.852Z,0.75
2023-02-19T11:42:08.722Z,1.40
2023-02-19T11:44:57.616Z,1.20
2023-02-19T11:48:02.287Z,0.67
2023-02-19T11:50:47.627Z,0.85
2023-02-19T11:53:26.153Z,0.30
2023-02-19T11:56:13.026Z,0.50
2023-02-19T11:59:02.582Z,0.80
2023-02-19T12:02:04.208Z,0.50
2023-02-19T12:05:29.758Z,0.30
2023-02-19T12:08:55.138Z,0.57
2023-02-19T12:11:56.294Z,0.80
2023-02-19T12:15:00.439Z,0.68
2023-02-19T12:17:49.026Z,0.80
2023-02-19T12:20:31.714Z,0.73
2023-02-19T12:23:55.763Z,0.57
2023-02-19T12:26:29.771Z,0.80
2023-02-19T12:29:23.687Z,0.80
2023-02-19T12:32:22.439Z,0.68
2023-02-19T12:35:39.479Z,0.30
2023-02-19T12:38:22.567Z,0.37
2023-02-19T12:41:19.876Z,0.20
2023-02-19T12:43:56.420Z,0.40
2023-02-19T12:46:32.962Z,0.60
2023-02-19T12:49:08.382Z,0.20
2023-02-19T12:51:45.955Z,0.30
2023-02-19T12:54:23.835Z,0.45
2023-02-19T12:57:01.371Z,0.30
2023-02-19T12:59:37.712Z,0.60
2023-02-19T13:02:16.018Z,0.50
2023-02-19T13:04:50.698Z,0.30
2023-02-19T13:07:25.149Z,0.50
2023-02-19T13:09:59.010Z,1.30
2023-02-19T13:12:31.751Z,0.88
2023-02-19T13:15:03.873Z,0.30
2023-02-19T13:17:42.507Z,0.50
2023-02-19T13:20:25.798Z,0.23
2023-02-19T13:23:22.540Z,1.00
2023-02-19T13:26:15.790Z,0.40
2023-02-19T13:29:40.840Z,0.20
2023-02-19T13:32:31.448Z,0.50
2023-02-19T13:35:29.203Z,0.40
2023-02-19T13:38:03.711Z,0.73
2023-02-19T13:40:35.897Z,0.65
2023-02-19T13:43:07.624Z,0.30
2023-02-19T13:45:40.969Z,0.85
2023-02-19T13:48:26.519Z,0.35
2023-02-19T13:51:47.691Z,0.30
2023-02-19T13:54:28.055Z,0.40
2023-02-19T13:57:27.690Z,0.80
2023-02-19T13:59:57.304Z,1.10
2023-02-19T14:02:35.215Z,0.40
2023-02-19T14:05:10.577Z,0.40
2023-02-19T14:08:03.680Z,0.97
2023-02-19T14:11:03.631Z,1.10
2023-02-19T14:14:06.834Z,0.70
2023-02-19T14:16:52.744Z,0.60
2023-02-19T14:20:01.294Z,0.60
2023-02-19T14:23:09.497Z,1.30
2023-02-19T14:25:52.791Z,0.95
2023-02-19T14:28:36.547Z,0.57
2023-02-19T14:31:17.962Z,0.50
2023-02-19T14:33:50.809Z,1.42
2023-02-19T14:36:48.653Z,0.30
2023-02-19T14:39:20.953Z,0.88
2023-02-19T14:41:52.545Z,0.70
2023-02-19T14:44:25.010Z,0.75
2023-02-19T14:46:58.614Z,0.30
2023-02-19T14:49:34.775Z,0.50
2023-02-19T14:52:09.490Z,1.03
2023-02-19T14:54:44.240Z,0.52
2023-02-19T14:57:18.930Z,1.08
2023-02-19T14:59:58.676Z,0.50
2023-02-19T15:02:28.882Z,0.40
2023-02-19T15:04:58.047Z,0.38
2023-02-19T15:07:31.208Z,0.30
2023-02-19T15:10:05.557Z,0.30
2023-02-19T15:12:42.828Z,0.50
2023-02-19T15:15:19.596Z,0.60
2023-02-19T15:17:48.379Z,1.77
2023-02-19T15:20:21.590Z,2.00
2023-02-19T15:22:50.364Z,2.00
2023-02-19T15:25:21.934Z,1.77
2023-02-19T15:27:51.197Z,1.33
2023-02-19T15:30:28.527Z,1.20
2023-02-19T15:32:58.976Z,1.02
2023-02-19T15:35:29.994Z,0.93
2023-02-19T15:37:58.603Z,1.02
2023-02-19T15:40:32.478Z,1.02
2023-02-19T15:43:01.952Z,0.75
2023-02-19T15:45:38.511Z,0.90
2023-02-19T15:48:12.849Z,0.80
2023-02-19T15:50:48.178Z,0.70
2023-02-19T15:53:20.045Z,0.47
2023-02-19T15:55:58.808Z,0.70
2023-02-19T15:58:32.672Z,0.50
2023-02-19T16:01:05.902Z,0.90
2023-02-19T16:03:34.864Z,0.77
2023-02-19T16:06:06.456Z,0.55
2023-02-19T16:08:37.365Z,1.50
2023-02-19T16:11:08.556Z,1.27
2023-02-19T16:13:37.439Z,1.25
2023-02-19T16:16:22.719Z,1.42
2023-02-19T16:18:53.014Z,1.38
2023-02-19T16:21:24.448Z,0.82
2023-02-19T16:23:59.269Z,0.77
2023-02-19T16:26:28.101Z,1.00
2023-02-19T16:28:57.300Z,1.15
2023-02-19T16:31:27.251Z,1.00
2023-02-19T16:33:58.265Z,0.70
2023-02-19T16:36:37.908Z,0.80
2023-02-19T16:39:23.560Z,0.70
2023-02-19T16:42:16.079Z,0.52
2023-02-19T16:44:45.378Z,0.73
2023-02-19T16:47:41.674Z,0.50
2023-02-19T16:50:16.778Z,1.00
2023-02-19T16:52:55.595Z,0.77
2023-02-19T16:55:24.846Z,0.70
2023-02-19T16:57:53.442Z,0.70
2023-02-19T17:00:24.833Z,0.90
2023-02-19T17:02:58.272Z,0.70
2023-02-19T17:05:30.066Z,0.93
2023-02-19T17:07:58.498Z,0.73
2023-02-19T17:10:29.163Z,0.77
2023-02-19T17:12:57.693Z,1.13
2023-02-19T17:15:25.970Z,1.00
2023-02-19T17:17:55.710Z,0.98
2023-02-19T17:20:27.735Z,0.68
2023-02-19T17:22:56.496Z,0.38
2023-02-19T17:25:24.931Z,0.70
2023-02-19T17:27:53.253Z,1.23
2023-02-19T17:30:27.897Z,1.27
2023-02-19T17:32:57.663Z,0.40
2023-02-19T17:35:26.218Z,0.80
2023-02-19T17:37:54.558Z,1.05
2023-02-19T17:40:32.695Z,1.00
2023-02-19T17:43:01.639Z,1.25
2023-02-19T17:45:30.199Z,1.40
2023-02-19T17:48:00.622Z,0.75
2023-02-19T17:50:31.692Z,1.30
2023-02-19T17:53:00.307Z,0.90
2023-02-19T17:55:28.604Z,1.10
2023-02-19T17:57:57.017Z,0.90
2023-02-19T18:00:28.214Z,0.80
2023-02-19T18:02:57.412Z,1.20
2023-02-19T18:05:27.359Z,1.20
2023-02-19T18:07:56.006Z,0.83
2023-02-19T18:10:25.348Z,0.82
2023-02-19T18:12:54.001Z,0.60
2023-02-19T18:15:26.205Z,0.60
2023-02-19T18:17:56.208Z,0.60
2023-02-19T18:20:28.627Z,1.10
2023-02-19T18:22:57.499Z,0.82
2023-02-19T18:25:26.514Z,0.40
2023-02-19T18:27:55.269Z,0.50
2023-02-19T18:30:24.356Z,0.90
2023-02-19T18:32:53.201Z,0.90
2023-02-19T18:35:22.930Z,0.57
2023-02-19T18:37:54.156Z,0.30
2023-02-19T18:40:25.370Z,0.35
2023-02-19T18:42:54.004Z,0.60
2023-02-19T18:45:22.513Z,0.70
2023-02-19T18:47:51.465Z,0.65
2023-02-19T18:50:21.582Z,0.60
2023-02-19T18:52:49.937Z,0.30
2023-02-19T18:55:20.387Z,0.28
2023-02-19T18:57:49.349Z,0.38
2023-02-19T19:00:21.327Z,0.40
2023-02-19T19:02:50.838Z,0.50
2023-02-19T19:05:23.223Z,0.40
2023-02-19T19:07:53.112Z,0.30
2023-02-19T19:10:23.704Z,1.08
2023-02-19T19:12:54.098Z,0.88
2023-02-19T19:15:23.550Z,0.70
2023-02-19T19:17:52.556Z,0.55
2023-02-19T19:20:23.262Z,0.60
2023-02-19T19:22:51.958Z,0.40
2023-02-19T19:25:22.834Z,0.40
2023-02-19T19:27:51.952Z,0.50
2023-02-19T19:30:21.232Z,0.57
2023-02-19T19:32:51.441Z,0.75
2023-02-19T19:35:22.154Z,0.38
2023-02-19T19:37:50.988Z,0.43
2023-02-19T19:40:20.475Z,0.30
2023-02-19T19:42:53.179Z,1.15
2023-02-19T19:45:21.869Z,0.37
2023-02-19T19:47:50.529Z,0.85
2023-02-19T19:50:19.347Z,0.30
2023-02-19T19:52:47.692Z,0.80
2023-02-19T19:55:16.220Z,0.30
2023-02-19T19:57:44.579Z,0.40
2023-02-19T20:00:18.590Z,0.40
2023-02-19T20:02:47.565Z,1.10
2023-02-19T20:05:16.880Z,0.30
2023-02-19T20:07:45.801Z,0.40
2023-02-19T20:10:16.038Z,0.50
2023-02-19T20:12:44.584Z,1.20
2023-02-19T20:15:14.841Z,0.40
2023-02-19T20:17:43.123Z,0.80
2023-02-19T20:20:12.414Z,0.32
2023-02-19T20:22:40.699Z,0.60
2023-02-19T20:25:09.616Z,0.30
2023-02-19T20:27:38.511Z,0.30
2023-02-19T20:30:11.317Z,0.40
2023-02-19T20:32:41.101Z,0.40
2023-02-19T20:35:09.820Z,0.50
2023-02-19T20:37:39.860Z,0.52
2023-02-19T20:40:10.202Z,0.30
2023-02-19T20:42:38.547Z,0.50
2023-02-19T20:45:07.671Z,0.30
2023-02-19T20:47:36.378Z,0.45
2023-02-19T20:50:07.690Z,0.30
2023-02-19T20:52:36.013Z,0.40
2023-02-19T20:55:04.741Z,0.25
2023-02-19T20:57:33.023Z,0.40
2023-02-19T21:00:01.329Z,0.30
2023-02-19T21:02:30.199Z,0.30
2023-02-19T21:04:59.864Z,0.40
2023-02-19T21:07:29.551Z,0.73
2023-02-19T21:09:57.977Z,0.80
2023-02-19T21:12:26.283Z,0.30
2023-02-19T21:14:54.672Z,0.30
2023-02-19T21:17:22.954Z,0.30
2023-02-19T21:19:51.291Z,0.20
2023-02-19T21:22:19.586Z,0.73
2023-02-19T21:24:52.119Z,0.70
2023-02-19T21:27:20.591Z,0.53
2023-02-19T21:29:48.959Z,0.32
2023-02-19T21:32:17.402Z,0.40
2023-02-19T21:34:45.804Z,0.30
2023-02-19T21:37:14.081Z,0.22
2023-02-19T21:39:42.842Z,0.30
2023-02-19T21:42:12.686Z,0.80
2023-02-19T21:44:43.044Z,0.30
2023-02-19T21:47:12.607Z,0.20
2023-02-19T21:49:41.907Z,0.30
2023-02-19T21:52:10.790Z,0.20
2023-02-19T21:54:39.160Z,0.40
2023-02-19T21:57:09.412Z,0.40
2023-02-19T21:59:39.157Z,0.30
2023-02-19T22:02:07.684Z,0.30
2023-02-19T22:04:35.983Z,0.30
2023-02-19T22:07:04.285Z,0.35
2023-02-19T22:09:32.573Z,0.50
2023-02-19T22:12:00.916Z,0.35
2023-02-19T22:14:29.185Z,0.33
2023-02-19T22:16:58.864Z,0.52
2023-02-19T22:19:27.144Z,0.40
2023-02-19T22:21:55.475Z,0.40
2023-02-19T22:24:23.884Z,0.30
2023-02-19T22:26:56.167Z,0.40
2023-02-19T22:29:25.035Z,0.50
2023-02-19T22:31:54.021Z,0.67
2023-02-19T22:34:23.962Z,0.40
2023-02-19T22:36:52.283Z,0.70
2023-02-19T22:39:24.679Z,0.50
2023-02-19T22:41:53.506Z,0.40
2023-02-19T22:44:21.877Z,0.47
2023-02-19T22:46:52.375Z,0.70
2023-02-19T22:49:21.697Z,0.40
2023-02-19T22:51:57.612Z,0.47
2023-02-19T22:54:27.118Z,0.40
2023-02-19T22:56:56.095Z,0.50
2023-02-19T22:59:24.719Z,0.30
2023-02-19T23:01:54.108Z,0.40
2023-02-19T23:04:24.140Z,0.43
2023-02-19T23:06:53.899Z,0.50
2023-02-19T23:09:25.355Z,0.40
2023-02-19T23:11:54.428Z,0.50
2023-02-19T23:14:24.369Z,0.40
2023-02-19T23:16:52.715Z,0.30
2023-02-19T23:19:21.061Z,0.43
2023-02-19T23:21:49.656Z,0.38
2023-02-19T23:24:19.948Z,0.38
2023-02-19T23:26:50.526Z,0.45
2023-02-19T23:29:23.466Z,0.25
2023-02-19T23:31:53.435Z,0.30
2023-02-19T23:34:22.357Z,0.30
2023-02-19T23:36:51.695Z,0.32
2023-02-19T23:39:23.512Z,0.50
2023-02-19T23:41:54.476Z,0.27
2023-02-19T23:44:24.913Z,0.40
2023-02-19T23:46:53.955Z,0.22
2023-02-19T23:49:22.292Z,0.30
2023-02-19T23:51:51.444Z,0.40
2023-02-19T23:54:21.115Z,0.32
2023-02-19T23:56:49.540Z,0.40
2023-02-19T23:59:18.024Z,0.60
